sensor_id;sensor_type;location;lat;lon;timestamp;pressure;altitude;pressure_sealevel;temperature;humidity
64023;BME280;50264;52.088;5.296;2023-03-14T00:03:03;98805.0;;;10.74;95.51
64023;BME280;50264;52.088;5.296;2023-03-14T00:04:39;98807.0;;;10.71;95.81
64023;BME280;50264;52.088;5.296;2023-03-14T00:06:16;98811.0;;;10.58;95.69
64023;BME280;50264;52.088;5.296;2023-03-14T00:09:29;98812.0;;;10.59;96.58
64023;BME280;50264;52.088;5.296;2023-03-14T00:11:06;98815.0;;;10.57;96.01
64023;BME280;50264;52.088;5.296;2023-03-14T00:12:43;98810.0;;;10.59;96.12
64023;BME280;50264;52.088;5.296;2023-03-14T00:14:20;98813.0;;;10.5;95.62
64023;BME280;50264;52.088;5.296;2023-03-14T00:17:39;98808.0;;;10.52;95.63
64023;BME280;50264;52.088;5.296;2023-03-14T00:19:15;98809.0;;;10.62;95.55
64023;BME280;50264;52.088;5.296;2023-03-14T00:20:51;98806.0;;;10.63;95.64
64023;BME280;50264;52.088;5.296;2023-03-14T00:24:07;98809.0;;;10.66;95.74
64023;BME280;50264;52.088;5.296;2023-03-14T00:25:43;98807.0;;;10.75;95.13
64023;BME280;50264;52.088;5.296;2023-03-14T00:27:19;98805.0;;;10.83;94.36
64023;BME280;50264;52.088;5.296;2023-03-14T00:30:31;98805.0;;;10.83;93.3
64023;BME280;50264;52.088;5.296;2023-03-14T00:32:07;98813.0;;;10.77;90.89
64023;BME280;50264;52.088;5.296;2023-03-14T00:33:44;98810.0;;;10.78;90.26
64023;BME280;50264;52.088;5.296;2023-03-14T00:35:20;98803.0;;;10.89;89.13
64023;BME280;50264;52.088;5.296;2023-03-14T00:38:33;98801.0;;;11.03;88.01
64023;BME280;50264;52.088;5.296;2023-03-14T00:40:10;98805.0;;;11.02;88.4
64023;BME280;50264;52.088;5.296;2023-03-14T00:41:46;98808.0;;;10.91;87.56
64023;BME280;50264;52.088;5.296;2023-03-14T00:44:59;98813.0;;;10.92;86.8
64023;BME280;50264;52.088;5.296;2023-03-14T00:46:35;98811.0;;;11.05;87.96
64023;BME280;50264;52.088;5.296;2023-03-14T00:48:11;98807.0;;;11.09;87.07
64023;BME280;50264;52.088;5.296;2023-03-14T00:51:24;98803.0;;;10.92;86.96
64023;BME280;50264;52.088;5.296;2023-03-14T00:53:00;98799.0;;;11.04;87.02
64023;BME280;50264;52.088;5.296;2023-03-14T00:54:36;98801.0;;;10.91;87.39
64023;BME280;50264;52.088;5.296;2023-03-14T00:56:12;98805.0;;;11.0;87.12
64023;BME280;50264;52.088;5.296;2023-03-14T00:59:25;98813.0;;;10.95;88.33
64023;BME280;50264;52.088;5.296;2023-03-14T01:01:05;98823.0;;;10.85;88.31
64023;BME280;50264;52.088;5.296;2023-03-14T01:02:41;98823.0;;;10.87;87.43
64023;BME280;50264;52.088;5.296;2023-03-14T01:06:06;98831.0;;;10.78;87.5
64023;BME280;50264;52.088;5.296;2023-03-14T01:07:42;98822.0;;;10.71;89.46
64023;BME280;50264;52.088;5.296;2023-03-14T01:09:18;98823.0;;;10.78;90.02
64023;BME280;50264;52.088;5.296;2023-03-14T01:10:54;98821.0;;;10.79;90.33
64023;BME280;50264;52.088;5.296;2023-03-14T01:14:07;98827.0;;;10.68;91.01
64023;BME280;50264;52.088;5.296;2023-03-14T01:15:43;98817.0;;;10.56;91.26
64023;BME280;50264;52.088;5.296;2023-03-14T01:17:19;98821.0;;;10.54;91.77
64023;BME280;50264;52.088;5.296;2023-03-14T01:20:31;98828.0;;;10.48;92.37
64023;BME280;50264;52.088;5.296;2023-03-14T01:22:08;98828.0;;;10.39;94.7
64023;BME280;50264;52.088;5.296;2023-03-14T01:23:45;98838.0;;;10.54;94.38
64023;BME280;50264;52.088;5.296;2023-03-14T01:26:58;98837.0;;;10.34;95.45
64023;BME280;50264;52.088;5.296;2023-03-14T01:28:34;98839.0;;;10.15;96.23
64023;BME280;50264;52.088;5.296;2023-03-14T01:30:12;98838.0;;;10.22;96.67
64023;BME280;50264;52.088;5.296;2023-03-14T01:31:49;98833.0;;;10.19;96.88
64023;BME280;50264;52.088;5.296;2023-03-14T01:35:02;98826.0;;;10.29;96.23
64023;BME280;50264;52.088;5.296;2023-03-14T01:36:38;98821.0;;;10.29;96.23
64023;BME280;50264;52.088;5.296;2023-03-14T01:38:14;98815.0;;;10.18;96.93
64023;BME280;50264;52.088;5.296;2023-03-14T01:41:26;98819.0;;;10.24;96.88
64023;BME280;50264;52.088;5.296;2023-03-14T01:43:12;98820.0;;;10.3;96.58
64023;BME280;50264;52.088;5.296;2023-03-14T01:44:52;98813.0;;;10.23;97.14
64023;BME280;50264;52.088;5.296;2023-03-14T01:46:34;98810.0;;;10.25;96.31
64023;BME280;50264;52.088;5.296;2023-03-14T01:49:50;98819.0;;;10.25;95.83
64023;BME280;50264;52.088;5.296;2023-03-14T01:51:33;98813.0;;;10.24;96.18
64023;BME280;50264;52.088;5.296;2023-03-14T01:53:12;98810.0;;;10.22;96.2
64023;BME280;50264;52.088;5.296;2023-03-14T01:54:51;98810.0;;;10.22;96.14
64023;BME280;50264;52.088;5.296;2023-03-14T01:58:08;98806.0;;;10.28;95.63
64023;BME280;50264;52.088;5.296;2023-03-14T01:59:46;98797.0;;;10.19;95.79
64023;BME280;50264;52.088;5.296;2023-03-14T02:01:26;98787.0;;;10.31;95.26
64023;BME280;50264;52.088;5.296;2023-03-14T02:04:51;98787.0;;;10.17;95.15
64023;BME280;50264;52.088;5.296;2023-03-14T02:06:33;98787.0;;;10.16;95.05
64023;BME280;50264;52.088;5.296;2023-03-14T02:08:14;98793.0;;;10.11;94.94
64023;BME280;50264;52.088;5.296;2023-03-14T02:09:54;98786.0;;;10.06;94.71
64023;BME280;50264;52.088;5.296;2023-03-14T02:11:32;98784.0;;;10.08;95.25
64023;BME280;50264;52.088;5.296;2023-03-14T02:14:47;98783.0;;;10.13;94.92
64023;BME280;50264;52.088;5.296;2023-03-14T02:16:23;98790.0;;;10.06;94.49
64023;BME280;50264;52.088;5.296;2023-03-14T02:18:02;98787.0;;;10.09;95.33
64023;BME280;50264;52.088;5.296;2023-03-14T02:21:40;98784.0;;;10.17;94.64
64023;BME280;50264;52.088;5.296;2023-03-14T02:23:29;98780.0;;;10.13;94.42
64023;BME280;50264;52.088;5.296;2023-03-14T02:25:14;98770.0;;;10.05;94.6
64023;BME280;50264;52.088;5.296;2023-03-14T02:27:25;98780.0;;;10.02;94.27
64023;BME280;50264;52.088;5.296;2023-03-14T02:29:01;98774.0;;;10.15;94.37
64023;BME280;50264;52.088;5.296;2023-03-14T02:30:37;98769.0;;;10.21;93.93
64023;BME280;50264;52.088;5.296;2023-03-14T02:33:55;98768.0;;;10.25;92.79
64023;BME280;50264;52.088;5.296;2023-03-14T02:35:34;98767.0;;;10.16;93.54
64023;BME280;50264;52.088;5.296;2023-03-14T02:37:17;98763.0;;;10.13;93.59
64023;BME280;50264;52.088;5.296;2023-03-14T02:39:03;98766.0;;;10.18;93.14
64023;BME280;50264;52.088;5.296;2023-03-14T02:42:20;98764.0;;;10.14;93.68
64023;BME280;50264;52.088;5.296;2023-03-14T02:43:57;98764.0;;;10.16;93.79
64023;BME280;50264;52.088;5.296;2023-03-14T02:45:38;98767.0;;;10.13;93.99
64023;BME280;50264;52.088;5.296;2023-03-14T02:47:20;98770.0;;;10.14;94.12
64023;BME280;50264;52.088;5.296;2023-03-14T02:50:40;98765.0;;;10.09;94.72
64023;BME280;50264;52.088;5.296;2023-03-14T02:52:17;98760.0;;;10.22;94.08
64023;BME280;50264;52.088;5.296;2023-03-14T02:53:53;98764.0;;;10.14;94.33
64023;BME280;50264;52.088;5.296;2023-03-14T02:55:29;98755.0;;;10.22;93.6
64023;BME280;50264;52.088;5.296;2023-03-14T02:58:41;98755.0;;;10.23;93.8
64023;BME280;50264;52.088;5.296;2023-03-14T03:00:18;98758.0;;;10.23;94.15
64023;BME280;50264;52.088;5.296;2023-03-14T03:01:55;98756.0;;;10.26;93.3
64023;BME280;50264;52.088;5.296;2023-03-14T03:05:07;98755.0;;;10.24;93.72
64023;BME280;50264;52.088;5.296;2023-03-14T03:06:43;98755.0;;;10.23;94.31
64023;BME280;50264;52.088;5.296;2023-03-14T03:08:21;98755.0;;;10.24;94.02
64023;BME280;50264;52.088;5.296;2023-03-14T03:11:33;98761.0;;;10.3;93.16
64023;BME280;50264;52.088;5.296;2023-03-14T03:13:10;98756.0;;;10.26;93.48
64023;BME280;50264;52.088;5.296;2023-03-14T03:14:46;98758.0;;;10.37;93.09
64023;BME280;50264;52.088;5.296;2023-03-14T03:16:22;98756.0;;;10.28;93.15
64023;BME280;50264;52.088;5.296;2023-03-14T03:19:34;98743.0;;;10.26;93.53
64023;BME280;50264;52.088;5.296;2023-03-14T03:21:11;98745.0;;;10.23;92.95
64023;BME280;50264;52.088;5.296;2023-03-14T03:22:47;98738.0;;;10.33;92.62
64023;BME280;50264;52.088;5.296;2023-03-14T03:26:00;98737.0;;;10.34;92.97
64023;BME280;50264;52.088;5.296;2023-03-14T03:27:37;98733.0;;;10.32;92.25
64023;BME280;50264;52.088;5.296;2023-03-14T03:29:14;98732.0;;;10.34;92.2
64023;BME280;50264;52.088;5.296;2023-03-14T03:32:26;98736.0;;;10.29;92.96
64023;BME280;50264;52.088;5.296;2023-03-14T03:34:03;98725.0;;;10.22;93.01
64023;BME280;50264;52.088;5.296;2023-03-14T03:35:44;98736.0;;;10.23;93.36
64023;BME280;50264;52.088;5.296;2023-03-14T03:37:20;98722.0;;;10.22;92.73
64023;BME280;50264;52.088;5.296;2023-03-14T03:40:32;98723.0;;;10.28;92.83
64023;BME280;50264;52.088;5.296;2023-03-14T03:42:09;98719.0;;;10.19;92.88
64023;BME280;50264;52.088;5.296;2023-03-14T03:43:45;98723.0;;;10.26;92.21
64023;BME280;50264;52.088;5.296;2023-03-14T03:46:57;98719.0;;;10.31;92.29
64023;BME280;50264;52.088;5.296;2023-03-14T03:48:34;98723.0;;;10.27;91.48
64023;BME280;50264;52.088;5.296;2023-03-14T03:50:10;98730.0;;;10.28;91.44
64023;BME280;50264;52.088;5.296;2023-03-14T03:53:22;98724.0;;;10.3;90.77
64023;BME280;50264;52.088;5.296;2023-03-14T03:54:59;98715.0;;;10.37;90.31
64023;BME280;50264;52.088;5.296;2023-03-14T03:56:35;98725.0;;;10.32;90.72
64023;BME280;50264;52.088;5.296;2023-03-14T03:58:11;98722.0;;;10.36;91.59
64023;BME280;50264;52.088;5.296;2023-03-14T04:01:23;98719.0;;;10.38;90.45
64023;BME280;50264;52.088;5.296;2023-03-14T04:02:59;98715.0;;;10.46;89.35
64023;BME280;50264;52.088;5.296;2023-03-14T04:04:35;98719.0;;;10.56;89.45
64023;BME280;50264;52.088;5.296;2023-03-14T04:07:49;98715.0;;;10.65;88.95
64023;BME280;50264;52.088;5.296;2023-03-14T04:09:25;98722.0;;;10.59;88.69
64023;BME280;50264;52.088;5.296;2023-03-14T04:11:01;98719.0;;;10.66;87.89
64023;BME280;50264;52.088;5.296;2023-03-14T04:14:15;98724.0;;;10.6;88.19
64023;BME280;50264;52.088;5.296;2023-03-14T04:15:52;98728.0;;;10.58;87.83
64023;BME280;50264;52.088;5.296;2023-03-14T04:17:28;98725.0;;;10.7;88.48
64023;BME280;50264;52.088;5.296;2023-03-14T04:19:04;98721.0;;;10.72;87.85
64023;BME280;50264;52.088;5.296;2023-03-14T04:22:17;98720.0;;;10.63;89.09
64023;BME280;50264;52.088;5.296;2023-03-14T04:23:53;98724.0;;;10.68;88.02
64023;BME280;50264;52.088;5.296;2023-03-14T04:25:30;98730.0;;;10.6;88.5
64023;BME280;50264;52.088;5.296;2023-03-14T04:28:42;98736.0;;;10.7;88.97
64023;BME280;50264;52.088;5.296;2023-03-14T04:30:19;98734.0;;;10.57;88.06
64023;BME280;50264;52.088;5.296;2023-03-14T04:31:55;98727.0;;;10.64;88.16
64023;BME280;50264;52.088;5.296;2023-03-14T04:36:44;98721.0;;;10.59;88.04
64023;BME280;50264;52.088;5.296;2023-03-14T04:38:20;98731.0;;;10.71;87.98
64023;BME280;50264;52.088;5.296;2023-03-14T04:41:32;98712.0;;;10.78;87.51
64023;BME280;50264;52.088;5.296;2023-03-14T04:43:10;98712.0;;;10.75;87.41
64023;BME280;50264;52.088;5.296;2023-03-14T04:44:46;98710.0;;;10.69;87.99
64023;BME280;50264;52.088;5.296;2023-03-14T04:46:23;98705.0;;;10.69;88.25
64023;BME280;50264;52.088;5.296;2023-03-14T04:49:35;98707.0;;;10.65;88.44
64023;BME280;50264;52.088;5.296;2023-03-14T04:51:11;98708.0;;;10.67;88.12
64023;BME280;50264;52.088;5.296;2023-03-14T04:52:47;98710.0;;;10.72;87.82
64023;BME280;50264;52.088;5.296;2023-03-14T04:55:59;98705.0;;;10.71;88.23
64023;BME280;50264;52.088;5.296;2023-03-14T04:57:36;98715.0;;;10.7;88.57
64023;BME280;50264;52.088;5.296;2023-03-14T04:59:12;98712.0;;;10.82;87.78
64023;BME280;50264;52.088;5.296;2023-03-14T05:02:26;98713.0;;;10.88;87.84
64023;BME280;50264;52.088;5.296;2023-03-14T05:04:02;98715.0;;;10.82;88.37
64023;BME280;50264;52.088;5.296;2023-03-14T05:05:38;98700.0;;;10.66;89.57
64023;BME280;50264;52.088;5.296;2023-03-14T05:07:14;98711.0;;;10.55;90.0
64023;BME280;50264;52.088;5.296;2023-03-14T05:10:26;98708.0;;;10.62;90.46
64023;BME280;50264;52.088;5.296;2023-03-14T05:12:03;98705.0;;;10.68;91.25
64023;BME280;50264;52.088;5.296;2023-03-14T05:13:39;98707.0;;;10.64;92.82
64023;BME280;50264;52.088;5.296;2023-03-14T05:16:51;98699.0;;;10.65;92.86
64023;BME280;50264;52.088;5.296;2023-03-14T05:18:27;98692.0;;;10.53;93.85
64023;BME280;50264;52.088;5.296;2023-03-14T05:20:04;98689.0;;;10.49;95.0
64023;BME280;50264;52.088;5.296;2023-03-14T05:23:16;98686.0;;;10.39;95.6
64023;BME280;50264;52.088;5.296;2023-03-14T05:24:53;98684.0;;;10.4;95.88
64023;BME280;50264;52.088;5.296;2023-03-14T05:26:29;98685.0;;;10.36;95.31
64023;BME280;50264;52.088;5.296;2023-03-14T05:29:42;98676.0;;;10.38;95.62
64023;BME280;50264;52.088;5.296;2023-03-14T05:31:18;98683.0;;;10.33;96.2
64023;BME280;50264;52.088;5.296;2023-03-14T05:32:54;98686.0;;;10.08;97.64
64023;BME280;50264;52.088;5.296;2023-03-14T05:34:31;98685.0;;;10.08;97.65
64023;BME280;50264;52.088;5.296;2023-03-14T05:37:44;98683.0;;;10.17;98.32
64023;BME280;50264;52.088;5.296;2023-03-14T05:39:20;98690.0;;;10.14;97.71
64023;BME280;50264;52.088;5.296;2023-03-14T05:40:56;98683.0;;;10.25;97.97
64023;BME280;50264;52.088;5.296;2023-03-14T05:44:09;98682.0;;;10.27;97.96
64023;BME280;50264;52.088;5.296;2023-03-14T05:45:45;98690.0;;;10.09;98.41
64023;BME280;50264;52.088;5.296;2023-03-14T05:47:21;98685.0;;;9.98;99.74
64023;BME280;50264;52.088;5.296;2023-03-14T05:50:36;98686.0;;;9.93;100.0
64023;BME280;50264;52.088;5.296;2023-03-14T05:52:12;98682.0;;;9.89;100.0
64023;BME280;50264;52.088;5.296;2023-03-14T05:53:48;98682.0;;;9.94;99.95
64023;BME280;50264;52.088;5.296;2023-03-14T05:55:24;98683.0;;;9.78;100.0
64023;BME280;50264;52.088;5.296;2023-03-14T05:58:37;98688.0;;;9.81;100.0
64023;BME280;50264;52.088;5.296;2023-03-14T06:00:15;98688.0;;;9.81;100.0
64023;BME280;50264;52.088;5.296;2023-03-14T06:01:50;98684.0;;;9.84;100.0
64023;BME280;50264;52.088;5.296;2023-03-14T06:06:41;98680.0;;;9.86;100.0
64023;BME280;50264;52.088;5.296;2023-03-14T06:08:17;98677.0;;;9.92;100.0
64023;BME280;50264;52.088;5.296;2023-03-14T06:11:29;98684.0;;;9.88;100.0
64023;BME280;50264;52.088;5.296;2023-03-14T06:13:05;98683.0;;;9.93;100.0
64023;BME280;50264;52.088;5.296;2023-03-14T06:14:41;98690.0;;;9.9;100.0
64023;BME280;50264;52.088;5.296;2023-03-14T06:16:17;98686.0;;;9.9;100.0
64023;BME280;50264;52.088;5.296;2023-03-14T06:19:31;98684.0;;;9.89;100.0
64023;BME280;50264;52.088;5.296;2023-03-14T06:21:07;98693.0;;;9.91;100.0
64023;BME280;50264;52.088;5.296;2023-03-14T06:22:44;98696.0;;;9.91;100.0
64023;BME280;50264;52.088;5.296;2023-03-14T06:25:56;98696.0;;;9.91;100.0
64023;BME280;50264;52.088;5.296;2023-03-14T06:27:33;98703.0;;;9.91;100.0
64023;BME280;50264;52.088;5.296;2023-03-14T06:29:10;98695.0;;;9.93;100.0
64023;BME280;50264;52.088;5.296;2023-03-14T06:32:22;98706.0;;;9.85;100.0
64023;BME280;50264;52.088;5.296;2023-03-14T06:33:58;98747.0;;;9.72;100.0
64023;BME280;50264;52.088;5.296;2023-03-14T06:35:35;98755.0;;;9.64;100.0
64023;BME280;50264;52.088;5.296;2023-03-14T06:37:11;98766.0;;;9.64;100.0
64023;BME280;50264;52.088;5.296;2023-03-14T06:40:23;98783.0;;;9.56;100.0
64023;BME280;50264;52.088;5.296;2023-03-14T06:41:59;98796.0;;;9.35;99.04
64023;BME280;50264;52.088;5.296;2023-03-14T06:43:35;98802.0;;;9.3;98.73
64023;BME280;50264;52.088;5.296;2023-03-14T06:46:49;98807.0;;;9.14;98.46
64023;BME280;50264;52.088;5.296;2023-03-14T06:48:25;98814.0;;;9.07;99.83
64023;BME280;50264;52.088;5.296;2023-03-14T06:50:01;98815.0;;;8.86;99.59
64023;BME280;50264;52.088;5.296;2023-03-14T06:53:16;98830.0;;;8.89;100.0
64023;BME280;50264;52.088;5.296;2023-03-14T06:54:52;98837.0;;;8.67;99.83
64023;BME280;50264;52.088;5.296;2023-03-14T06:56:29;98837.0;;;8.9;100.0
64023;BME280;50264;52.088;5.296;2023-03-14T06:58:05;98842.0;;;8.92;100.0
64023;BME280;50264;52.088;5.296;2023-03-14T07:01:21;98843.0;;;8.82;100.0
64023;BME280;50264;52.088;5.296;2023-03-14T07:02:58;98846.0;;;8.73;100.0
64023;BME280;50264;52.088;5.296;2023-03-14T07:04:34;98855.0;;;8.65;100.0
64023;BME280;50264;52.088;5.296;2023-03-14T07:07:46;98864.0;;;8.61;100.0
64023;BME280;50264;52.088;5.296;2023-03-14T07:09:23;98868.0;;;8.59;100.0
64023;BME280;50264;52.088;5.296;2023-03-14T07:10:59;98873.0;;;8.64;100.0
64023;BME280;50264;52.088;5.296;2023-03-14T07:14:11;98880.0;;;8.65;100.0
64023;BME280;50264;52.088;5.296;2023-03-14T07:15:47;98887.0;;;8.85;100.0
64023;BME280;50264;52.088;5.296;2023-03-14T07:17:23;98897.0;;;8.84;100.0
64023;BME280;50264;52.088;5.296;2023-03-14T07:20:36;98901.0;;;8.83;100.0
64023;BME280;50264;52.088;5.296;2023-03-14T07:22:13;98911.0;;;8.84;100.0
64023;BME280;50264;52.088;5.296;2023-03-14T07:23:49;98918.0;;;8.83;100.0
64023;BME280;50264;52.088;5.296;2023-03-14T07:25:25;98935.0;;;8.73;99.94
64023;BME280;50264;52.088;5.296;2023-03-14T07:28:38;98941.0;;;8.71;100.0
64023;BME280;50264;52.088;5.296;2023-03-14T07:30:14;98955.0;;;8.5;100.0
64023;BME280;50264;52.088;5.296;2023-03-14T07:31:50;98957.0;;;8.58;100.0
64023;BME280;50264;52.088;5.296;2023-03-14T07:35:03;98957.0;;;8.63;100.0
64023;BME280;50264;52.088;5.296;2023-03-14T07:36:40;98970.0;;;8.73;100.0
64023;BME280;50264;52.088;5.296;2023-03-14T07:38:16;98984.0;;;8.51;100.0
64023;BME280;50264;52.088;5.296;2023-03-14T07:41:28;98992.0;;;8.59;100.0
64023;BME280;50264;52.088;5.296;2023-03-14T07:43:04;98999.0;;;8.49;99.86
64023;BME280;50264;52.088;5.296;2023-03-14T07:44:41;99014.0;;;8.38;98.44
64023;BME280;50264;52.088;5.296;2023-03-14T07:46:17;99025.0;;;8.23;98.38
64023;BME280;50264;52.088;5.296;2023-03-14T07:49:28;99031.0;;;8.23;98.58
64023;BME280;50264;52.088;5.296;2023-03-14T07:51:05;99041.0;;;8.0;97.64
64023;BME280;50264;52.088;5.296;2023-03-14T07:52:41;99045.0;;;8.05;98.55
64023;BME280;50264;52.088;5.296;2023-03-14T07:55:53;99047.0;;;8.11;97.93
64023;BME280;50264;52.088;5.296;2023-03-14T07:57:29;99058.0;;;8.22;98.4
64023;BME280;50264;52.088;5.296;2023-03-14T07:59:05;99071.0;;;8.08;97.51
64023;BME280;50264;52.088;5.296;2023-03-14T08:02:19;99078.0;;;7.95;97.49
64023;BME280;50264;52.088;5.296;2023-03-14T08:03:55;99084.0;;;8.02;98.84
64023;BME280;50264;52.088;5.296;2023-03-14T08:05:34;99098.0;;;7.99;98.64
64023;BME280;50264;52.088;5.296;2023-03-14T08:07:10;99103.0;;;8.05;99.35
64023;BME280;50264;52.088;5.296;2023-03-14T08:10:22;99116.0;;;8.11;99.04
64023;BME280;50264;52.088;5.296;2023-03-14T08:11:58;99132.0;;;8.05;99.34
64023;BME280;50264;52.088;5.296;2023-03-14T08:13:35;99158.0;;;8.0;99.75
64023;BME280;50264;52.088;5.296;2023-03-14T08:16:49;99170.0;;;7.9;97.79
64023;BME280;50264;52.088;5.296;2023-03-14T08:20:03;99183.0;;;7.68;96.49
64023;BME280;50264;52.088;5.296;2023-03-14T08:23:16;99195.0;;;7.49;96.87
64023;BME280;50264;52.088;5.296;2023-03-14T08:24:51;99213.0;;;7.47;97.54
64023;BME280;50264;52.088;5.296;2023-03-14T08:28:04;99219.0;;;7.12;96.82
64023;BME280;50264;52.088;5.296;2023-03-14T08:31:17;99230.0;;;7.01;98.51
64023;BME280;50264;52.088;5.296;2023-03-14T08:32:53;99245.0;;;6.96;98.53
64023;BME280;50264;52.088;5.296;2023-03-14T08:34:33;99264.0;;;6.76;98.92
64023;BME280;50264;52.088;5.296;2023-03-14T08:37:46;99264.0;;;6.76;99.16
64023;BME280;50264;52.088;5.296;2023-03-14T08:39:22;99267.0;;;6.84;99.54
64023;BME280;50264;52.088;5.296;2023-03-14T08:41:00;99293.0;;;6.75;99.18
64023;BME280;50264;52.088;5.296;2023-03-14T08:44:14;99293.0;;;6.58;99.13
64023;BME280;50264;52.088;5.296;2023-03-14T08:45:50;99299.0;;;6.7;99.86
64023;BME280;50264;52.088;5.296;2023-03-14T08:47:26;99306.0;;;6.78;98.77
64023;BME280;50264;52.088;5.296;2023-03-14T08:49:02;99311.0;;;6.83;98.02
64023;BME280;50264;52.088;5.296;2023-03-14T08:52:16;99316.0;;;6.96;99.48
64023;BME280;50264;52.088;5.296;2023-03-14T08:53:53;99328.0;;;6.98;98.76
64023;BME280;50264;52.088;5.296;2023-03-14T08:55:28;99338.0;;;7.12;98.2
64023;BME280;50264;52.088;5.296;2023-03-14T08:58:41;99345.0;;;7.27;98.97
64023;BME280;50264;52.088;5.296;2023-03-14T09:00:19;99346.0;;;7.03;96.33
64023;BME280;50264;52.088;5.296;2023-03-14T09:01:55;99361.0;;;7.2;97.93
64023;BME280;50264;52.088;5.296;2023-03-14T09:05:08;99374.0;;;7.21;97.29
64023;BME280;50264;52.088;5.296;2023-03-14T09:06:44;99380.0;;;7.26;96.04
64023;BME280;50264;52.088;5.296;2023-03-14T09:08:21;99392.0;;;7.42;94.64
64023;BME280;50264;52.088;5.296;2023-03-14T09:09:57;99402.0;;;7.5;95.4
64023;BME280;50264;52.088;5.296;2023-03-14T09:13:09;99410.0;;;7.41;95.54
64023;BME280;50264;52.088;5.296;2023-03-14T09:14:45;99419.0;;;7.32;91.78
64023;BME280;50264;52.088;5.296;2023-03-14T09:16:21;99430.0;;;7.43;94.1
64023;BME280;50264;52.088;5.296;2023-03-14T09:19:34;99430.0;;;7.37;94.76
64023;BME280;50264;52.088;5.296;2023-03-14T09:21:10;99446.0;;;7.47;92.02
64023;BME280;50264;52.088;5.296;2023-03-14T09:22:46;99444.0;;;7.35;91.82
64023;BME280;50264;52.088;5.296;2023-03-14T09:25:58;99458.0;;;7.21;92.22
64023;BME280;50264;52.088;5.296;2023-03-14T09:27:35;99468.0;;;7.32;92.02
64023;BME280;50264;52.088;5.296;2023-03-14T09:29:11;99473.0;;;7.33;94.24
64023;BME280;50264;52.088;5.296;2023-03-14T09:32:23;99488.0;;;7.42;93.46
64023;BME280;50264;52.088;5.296;2023-03-14T09:33:59;99490.0;;;7.33;92.35
64023;BME280;50264;52.088;5.296;2023-03-14T09:35:35;99500.0;;;7.42;92.28
64023;BME280;50264;52.088;5.296;2023-03-14T09:37:12;99510.0;;;7.32;90.11
64023;BME280;50264;52.088;5.296;2023-03-14T09:40:24;99523.0;;;7.42;90.97
64023;BME280;50264;52.088;5.296;2023-03-14T09:42:14;99525.0;;;7.69;92.46
64023;BME280;50264;52.088;5.296;2023-03-14T09:43:59;99534.0;;;7.51;87.71
64023;BME280;50264;52.088;5.296;2023-03-14T09:45:40;99534.0;;;7.46;88.97
64023;BME280;50264;52.088;5.296;2023-03-14T09:48:55;99544.0;;;7.48;90.77
64023;BME280;50264;52.088;5.296;2023-03-14T09:50:33;99559.0;;;7.45;88.58
64023;BME280;50264;52.088;5.296;2023-03-14T09:52:15;99561.0;;;7.54;90.49
64023;BME280;50264;52.088;5.296;2023-03-14T09:53:55;99567.0;;;7.59;90.53
64023;BME280;50264;52.088;5.296;2023-03-14T09:57:11;99574.0;;;7.63;89.52
64023;BME280;50264;52.088;5.296;2023-03-14T09:58:51;99580.0;;;7.46;88.49
64023;BME280;50264;52.088;5.296;2023-03-14T10:00:31;99593.0;;;7.48;89.3
64023;BME280;50264;52.088;5.296;2023-03-14T10:03:54;99594.0;;;7.66;88.95
64023;BME280;50264;52.088;5.296;2023-03-14T10:05:32;99601.0;;;7.54;87.62
64023;BME280;50264;52.088;5.296;2023-03-14T10:07:11;99602.0;;;7.74;89.54
64023;BME280;50264;52.088;5.296;2023-03-14T10:08:50;99615.0;;;7.72;90.24
64023;BME280;50264;52.088;5.296;2023-03-14T10:12:03;99627.0;;;7.76;88.96
64023;BME280;50264;52.088;5.296;2023-03-14T10:13:48;99643.0;;;7.84;89.23
64023;BME280;50264;52.088;5.296;2023-03-14T10:15:29;99658.0;;;7.62;89.24
64023;BME280;50264;52.088;5.296;2023-03-14T10:17:08;99670.0;;;7.41;90.48
64023;BME280;50264;52.088;5.296;2023-03-14T10:20:28;99698.0;;;7.11;90.71
64023;BME280;50264;52.088;5.296;2023-03-14T10:22:11;99694.0;;;6.93;91.07
64023;BME280;50264;52.088;5.296;2023-03-14T10:23:50;99698.0;;;6.78;92.31
64023;BME280;50264;52.088;5.296;2023-03-14T10:25:28;99694.0;;;6.78;93.48
64023;BME280;50264;52.088;5.296;2023-03-14T10:29:02;99708.0;;;6.64;91.53
64023;BME280;50264;52.088;5.296;2023-03-14T10:30:44;99711.0;;;6.81;94.48
64023;BME280;50264;52.088;5.296;2023-03-14T10:32:20;99714.0;;;6.93;93.51
64023;BME280;50264;52.088;5.296;2023-03-14T10:34:04;99721.0;;;6.93;94.4
64023;BME280;50264;52.088;5.296;2023-03-14T10:35:41;99730.0;;;7.0;95.8
64023;BME280;50264;52.088;5.296;2023-03-14T10:38:57;99739.0;;;6.96;91.56
64023;BME280;50264;52.088;5.296;2023-03-14T10:40:53;99747.0;;;7.07;93.44
64023;BME280;50264;52.088;5.296;2023-03-14T10:42:31;99757.0;;;7.07;93.24
64023;BME280;50264;52.088;5.296;2023-03-14T10:44:11;99760.0;;;7.28;93.37
64023;BME280;50264;52.088;5.296;2023-03-14T10:47:32;99771.0;;;7.53;95.0
64023;BME280;50264;52.088;5.296;2023-03-14T10:49:25;99780.0;;;7.57;93.35
64023;BME280;50264;52.088;5.296;2023-03-14T10:51:04;99792.0;;;7.51;90.35
64023;BME280;50264;52.088;5.296;2023-03-14T10:52:47;99805.0;;;7.62;90.3
64023;BME280;50264;52.088;5.296;2023-03-14T10:56:06;99810.0;;;7.51;88.11
64023;BME280;50264;52.088;5.296;2023-03-14T10:57:43;99828.0;;;7.58;92.37
64023;BME280;50264;52.088;5.296;2023-03-14T10:59:19;99838.0;;;7.57;88.57
64023;BME280;50264;52.088;5.296;2023-03-14T11:01:03;99848.0;;;7.7;88.71
64023;BME280;50264;52.088;5.296;2023-03-14T11:04:52;99851.0;;;7.45;86.23
64023;BME280;50264;52.088;5.296;2023-03-14T11:06:40;99858.0;;;7.5;85.18
64023;BME280;50264;52.088;5.296;2023-03-14T11:08:24;99867.0;;;7.64;86.24
64023;BME280;50264;52.088;5.296;2023-03-14T11:10:11;99870.0;;;7.53;82.17
64023;BME280;50264;52.088;5.296;2023-03-14T11:11:54;99873.0;;;7.53;82.76
64023;BME280;50264;52.088;5.296;2023-03-14T11:13:44;99885.0;;;7.56;83.54
64023;BME280;50264;52.088;5.296;2023-03-14T11:15:31;99894.0;;;7.73;85.53
64023;BME280;50264;52.088;5.296;2023-03-14T11:19:06;99901.0;;;7.79;84.17
64023;BME280;50264;52.088;5.296;2023-03-14T11:21:08;99913.0;;;7.74;82.29
64023;BME280;50264;52.088;5.296;2023-03-14T11:22:55;99917.0;;;7.77;80.49
64023;BME280;50264;52.088;5.296;2023-03-14T11:24:44;99916.0;;;8.02;83.25
64023;BME280;50264;52.088;5.296;2023-03-14T11:26:33;99922.0;;;8.14;79.17
64023;BME280;50264;52.088;5.296;2023-03-14T11:28:17;99928.0;;;8.42;80.81